WetterOnline ( https://www.wetteronline.de )

Wetter aktuell Alsdorf

Aktuelles Wetter: Aachen-Orsbach (231m)

6-stündlich | Neueste Meldungen
Ortszeit Temperatur Wetter
Mi, 17.07. 20:00 21.0° C bewölkt
Mi, 17.07. 14:00 19.8° C leicht bewölkt
Mi, 17.07. 8:00 13.3° C fast wolkenlos
Mi, 17.07. 2:00 10.5° C fast wolkenlos
Di, 16.07. 20:00 16.8° C wolkig
Di, 16.07. 14:00 14.4° C bedeckt
Di, 16.07. 8:00 12.4° C bewölkt
Di, 16.07. 2:00 13.3° C bewölkt
Ortszeit Temperatur Wetter
Mi, 17.07. 20:30 20.2° C bewölkt
Mi, 17.07. 20:20 20.2° C bewölkt
Mi, 17.07. 20:10 20.8° C bewölkt
Mi, 17.07. 20:00 21.0° C bewölkt
Mi, 17.07. 19:50 21.0° C bewölkt
Mi, 17.07. 19:40 20.9° C bewölkt
Mi, 17.07. 19:30 21.4° C bewölkt
Mi, 17.07. 19:00 21.6° C leicht bewölkt
Mi, 17.07. 18:30 21.7° C leicht bewölkt
Mi, 17.07. 18:00 21.8° C wolkenlos
Mi, 17.07. 17:30 21.8° C wolkig
Ortszeit Relative Feuchte Sichtweite
Mi, 17.07. 20:00 50% 50 km
Mi, 17.07. 14:00 56% 19 km
Mi, 17.07. 8:00 88% 5.0 km
Mi, 17.07. 2:00 94% 12 km
Di, 16.07. 20:00 65% 22 km
Di, 16.07. 14:00 73% 28 km
Di, 16.07. 8:00 91% 11 km
Di, 16.07. 2:00 85% 45 km
Ortszeit Relative Feuchte Sichtweite
Mi, 17.07. 20:30 54% 40 km
Mi, 17.07. 20:20 54% -
Mi, 17.07. 20:10 55% -
Mi, 17.07. 20:00 50% 50 km
Mi, 17.07. 19:50 50% -
Mi, 17.07. 19:40 50% -
Mi, 17.07. 19:30 53% 35 km
Mi, 17.07. 19:00 50% 50 km
Mi, 17.07. 18:30 50% 30 km
Mi, 17.07. 18:00 50% 28 km
Mi, 17.07. 17:30 50% 28 km
Ortszeit Niederschlagsmenge Niederschlagsart
Mi, 17.07. 20:00 0.0 l/m2 in 12 Std. -
Mi, 17.07. 14:00 0.0 l/m2 in 6 Std. -
Mi, 17.07. 8:00 0.0 l/m2 in 12 Std. -
Mi, 17.07. 2:00 0.0 l/m2 in 6 Std. -
Di, 16.07. 20:00 0.0 l/m2 in 12 Std. -
Di, 16.07. 14:00 0.0 l/m2 in 6 Std. -
Di, 16.07. 8:00 0.0 l/m2 in 12 Std. -
Di, 16.07. 2:00 0.0 l/m2 in 6 Std. -
Ortszeit Niederschlagsmenge Niederschlagsart
Mi, 17.07. 20:30 0.0 l/m2 in 1 Std. -
Mi, 17.07. 20:20 keine Meldung -
Mi, 17.07. 20:10 keine Meldung -
Mi, 17.07. 20:00 0.0 l/m2 in 1 Std. -
Mi, 17.07. 19:50 keine Meldung -
Mi, 17.07. 19:40 keine Meldung -
Mi, 17.07. 19:30 0.0 l/m2 in 1 Std. -
Mi, 17.07. 19:00 0.0 l/m2 in 1 Std. -
Mi, 17.07. 18:30 0.0 l/m2 in 1 Std. -
Mi, 17.07. 18:00 0.0 l/m2 in 1 Std. -
Mi, 17.07. 17:30 0.0 l/m2 in 1 Std. -
Ortszeit Stärke Spitze Richtung
km/h Bft. km/h Grad Sektor
Mi, 17.07. 20:00 4 1 25 20° N
Mi, 17.07. 14:00 7 2 18 330° NW
Mi, 17.07. 8:00 0 0 7 - -
Mi, 17.07. 2:00 4 1 11 210° SW
Di, 16.07. 20:00 7 2 18 310° NW
Di, 16.07. 14:00 11 2 18 290° W
Di, 16.07. 8:00 4 1 14 210° SW
Di, 16.07. 2:00 11 2 18 320° NW
Ortszeit Stärke Spitze Richtung
km/h Bft. km/h Grad Sektor
Mi, 17.07. 20:30 4 1 7 40° NO
Mi, 17.07. 20:20 4 1 - 40° NO
Mi, 17.07. 20:10 4 1 - 60° NO
Mi, 17.07. 20:00 4 1 14 20° N
Mi, 17.07. 19:50 4 1 - 20° N
Mi, 17.07. 19:40 6 1 - 40° NO
Mi, 17.07. 19:30 7 2 14 90° O
Mi, 17.07. 19:00 9 2 19 30° NO
Mi, 17.07. 18:30 7 2 18 20° N
Mi, 17.07. 18:00 13 3 26 30° NO
Mi, 17.07. 17:30 7 2 25 20° N
Ortszeit Untergrenze Bedeckung Gattung
total tief tief mittel hoch
Mi, 17.07. 20:00 6300 m 8/8 7/8 - - -
Mi, 17.07. 14:00 960 m 3/8 3/8 - - -
Mi, 17.07. 8:00 8100 m 1/8 0/8 - - -
Mi, 17.07. 2:00 10500 m 2/8 0/8 - - -
Di, 16.07. 20:00 7200 m 8/8 0/8 - - -
Di, 16.07. 14:00 600 m 8/8 8/8 - - -
Di, 16.07. 8:00 570 m 7/8 7/8 - - -
Di, 16.07. 2:00 930 m 8/8 7/8 - - -
Ortszeit Bedeckungsgrad in Achtel und Wolkenuntergrenze
Mi, 17.07. 20:30 4(5700m) 7(6600m) 7(10500m)
Mi, 17.07. 20:20 4(5700m) 7(6600m) 7(10500m)
Mi, 17.07. 20:10 7(6300m) 8(10500m)
Mi, 17.07. 20:00 7(6300m) 8(7800m) 8(10500m)
Mi, 17.07. 19:50 7(6300m) 8(7800m) 8(10500m)
Mi, 17.07. 19:40 7(6000m) 7(6600m) 8(10500m)
Mi, 17.07. 19:30 7(6300m) 8(10500m) 8(10500m)
Mi, 17.07. 19:00 1(6600m) 3(10500m)
Mi, 17.07. 18:30 3(10500m)
Mi, 17.07. 18:00 keine Wolken
Mi, 17.07. 17:30 3(1290m) 6(10500m)
Ortszeit Luftdruck NN (hPa) Tendenz (hPa in 3 Std.)
Mi, 17.07. 20:00 1013 - 1,1
Mi, 17.07. 14:00 1016 - 0,5
Mi, 17.07. 8:00 1016 - 0,2
Mi, 17.07. 2:00 1018 - 0,6
Di, 16.07. 20:00 1018 - 0,9
Di, 16.07. 14:00 1020 - 0,3
Di, 16.07. 8:00 1020 + 0,5
Di, 16.07. 2:00 1020 0,0
Ortszeit Luftdruck NN (hPa) Tendenz (hPa in 3 Std.)
Mi, 17.07. 20:30 1013 - 0,8
Mi, 17.07. 20:20 1013 keine Meldung
Mi, 17.07. 20:10 1013 keine Meldung
Mi, 17.07. 20:00 1013 - 1,1
Mi, 17.07. 19:50 1013 keine Meldung
Mi, 17.07. 19:40 1013 keine Meldung
Mi, 17.07. 19:30 1013 - 1,1
Mi, 17.07. 19:00 1013 - 1,0
Mi, 17.07. 18:30 1014 - 1,0
Mi, 17.07. 18:00 1014 - 0,8
Mi, 17.07. 17:30 1014 - 0,9
Ortszeit Schneehöhe (cm)
Mi, 17.07. 20:00 -
Mi, 17.07. 14:00 -
Mi, 17.07. 8:00 -
Mi, 17.07. 2:00 -
Di, 16.07. 20:00 -
Di, 16.07. 14:00 -
Di, 16.07. 8:00 -
Di, 16.07. 2:00 -
Ortszeit Schneehöhe (cm)
Mi, 17.07. 20:30 -
Mi, 17.07. 20:20 -
Mi, 17.07. 20:10 -
Mi, 17.07. 20:00 -
Mi, 17.07. 19:50 -
Mi, 17.07. 19:40 -
Mi, 17.07. 19:30 -
Mi, 17.07. 19:00 -
Mi, 17.07. 18:30 -
Mi, 17.07. 18:00 -
Mi, 17.07. 17:30 -
Link zu dieser Seite / Seite empfehlen

Das Wetter in ...